Time;durP1;ratioP1;P1;durP2;ratioP2;P2;SDS_P1;SDS_P2;PMS_P1;PMS_P2;Temp;Humidity;BMP_temperature;BMP_pressure;BME280_temperature;BME280_humidity;BME280_pressure;Samples;Min_cycle;Max_cycle;Signal;HPM_P1;HPM_P2
2022/10/10 00:00:40;;;;;;;8.30;6.00;;;;;;;;;;5038371;28;20192;-66
2022/10/10 00:03:06;;;;;;;11.33;6.10;;;;;;;;;;5039587;28;20202;-66
2022/10/10 00:05:32;;;;;;;10.10;5.47;;;;;;;;;;5037484;28;20170;-66
2022/10/10 00:07:57;;;;;;;9.43;6.30;;;;;;;;;;5050290;28;20212;-66
2022/10/10 00:10:24;;;;;;;9.97;6.10;;;;;;;;;;5040731;28;20185;-66
2022/10/10 00:12:49;;;;;;;8.87;5.80;;;;;;;;;;5040577;28;20259;-66
2022/10/10 00:15:15;;;;;;;9.13;6.60;;;;;;;;;;5043113;28;20270;-66
2022/10/10 00:17:42;;;;;;;10.43;6.53;;;;;;;;;;5047716;28;20188;-66
2022/10/10 00:20:09;;;;;;;10.87;6.67;;;;;;;;;;5048797;28;20217;-66
2022/10/10 00:22:34;;;;;;;11.53;6.73;;;;;;;;;;5032111;28;20256;-66
2022/10/10 00:25:00;;;;;;;10.37;6.50;;;;;;;;;;5036749;28;20224;-66
2022/10/10 00:27:25;;;;;;;10.07;7.13;;;;;;;;;;5035451;28;20186;-66
2022/10/10 00:29:50;;;;;;;12.43;6.83;;;;;;;;;;5042561;28;20549;-66
2022/10/10 00:32:16;;;;;;;11.43;6.40;;;;;;;;;;5034350;28;21115;-66
2022/10/10 00:34:41;;;;;;;11.60;6.30;;;;;;;;;;5038070;28;20616;-66
2022/10/10 00:37:06;;;;;;;9.57;6.47;;;;;;;;;;5036766;28;20197;-66
2022/10/10 00:39:32;;;;;;;10.40;6.17;;;;;;;;;;5031448;28;20220;-66
2022/10/10 00:41:57;;;;;;;10.63;6.30;;;;;;;;;;5048452;28;20241;-66
2022/10/10 00:44:22;;;;;;;10.40;6.13;;;;;;;;;;5034614;28;20200;-66
2022/10/10 00:46:48;;;;;;;8.37;6.40;;;;;;;;;;5035795;28;20220;-66
2022/10/10 00:49:19;;;;;;;8.67;5.90;;;;;;;;;;5047721;28;20182;-66
2022/10/10 00:51:47;;;;;;;10.83;6.23;;;;;;;;;;5048605;28;20189;-66
2022/10/10 00:54:16;;;;;;;9.43;5.90;;;;;;;;;;5036039;28;20269;-66
2022/10/10 00:56:59;;;;;;;9.57;6.53;;;;;;;;;;5036724;28;20474;-66
2022/10/10 00:59:29;;;;;;;9.57;6.30;;;;;;;;;;5045345;28;20687;-66
2022/10/10 01:01:54;;;;;;;10.67;6.10;;;;;;;;;;5042345;28;20293;-66
2022/10/10 01:04:41;;;;;;;10.97;6.67;;;;;;;;;;5036375;28;20360;-66
2022/10/10 01:07:15;;;;;;;12.57;6.40;;;;;;;;;;5035304;28;20188;-66
2022/10/10 01:09:43;;;;;;;12.40;6.47;;;;;;;;;;5039260;28;20713;-66
2022/10/10 01:12:34;;;;;;;9.97;5.97;;;;;;;;;;5044836;28;20591;-66
2022/10/10 01:15:07;;;;;;;9.97;6.13;;;;;;;;;;5032204;28;20185;-66
2022/10/10 01:17:42;;;;;;;8.47;6.20;;;;;;;;;;5037635;28;20404;-66
2022/10/10 01:20:25;;;;;;;7.50;6.03;;;;;;;;;;5037746;28;20185;-66
2022/10/10 01:23:28;;;;;;;11.07;6.47;;;;;;;;;;5036680;28;20882;-66
2022/10/10 01:26:11;;;;;;;10.73;6.50;;;;;;;;;;5037057;28;20713;-66
2022/10/10 01:28:44;;;;;;;12.33;6.57;;;;;;;;;;5032084;28;20182;-66
2022/10/10 01:31:12;;;;;;;15.97;7.07;;;;;;;;;;5041719;28;20233;-66
2022/10/10 01:34:11;;;;;;;11.83;7.13;;;;;;;;;;5035510;28;20563;-66
2022/10/10 01:37:05;;;;;;;16.17;6.90;;;;;;;;;;5030799;28;20657;-66
2022/10/10 01:39:57;;;;;;;12.70;6.47;;;;;;;;;;5039031;28;20715;-66
2022/10/10 01:42:29;;;;;;;11.67;6.43;;;;;;;;;;5034960;28;20202;-66
2022/10/10 01:44:55;;;;;;;13.47;6.70;;;;;;;;;;5043186;28;20193;-66
2022/10/10 01:47:22;;;;;;;9.67;6.70;;;;;;;;;;5032624;28;20193;-66
2022/10/10 01:49:51;;;;;;;9.27;6.97;;;;;;;;;;5042150;28;20181;-66
2022/10/10 01:52:44;;;;;;;11.37;6.90;;;;;;;;;;5031429;28;20185;-66
2022/10/10 01:55:32;;;;;;;9.97;6.53;;;;;;;;;;5031489;28;20182;-66
2022/10/10 01:58:14;;;;;;;10.83;6.50;;;;;;;;;;5031692;28;20209;-66
2022/10/10 02:00:53;;;;;;;10.00;6.87;;;;;;;;;;5046317;28;20517;-66
2022/10/10 02:03:23;;;;;;;10.97;6.87;;;;;;;;;;5035463;28;20260;-66
2022/10/10 02:06:06;;;;;;;12.60;6.60;;;;;;;;;;5032570;28;20643;-66
2022/10/10 02:08:33;;;;;;;9.47;7.03;;;;;;;;;;5034619;28;20706;-66
2022/10/10 02:11:05;;;;;;;12.33;7.13;;;;;;;;;;5044404;28;20650;-66
2022/10/10 02:13:55;;;;;;;8.20;6.73;;;;;;;;;;5041987;28;20178;-66
2022/10/10 02:16:28;;;;;;;10.23;6.67;;;;;;;;;;5031594;28;20193;-66
2022/10/10 02:18:56;;;;;;;14.67;6.70;;;;;;;;;;5042705;28;20186;-66
2022/10/10 02:21:22;;;;;;;12.33;7.03;;;;;;;;;;5046639;28;20227;-66
2022/10/10 02:23:52;;;;;;;10.70;6.83;;;;;;;;;;5029547;28;20205;-66
2022/10/10 02:26:20;;;;;;;10.23;6.53;;;;;;;;;;5032375;28;20269;-66
2022/10/10 02:28:54;;;;;;;10.00;6.90;;;;;;;;;;5032697;28;20210;-66
2022/10/10 02:31:36;;;;;;;13.23;6.73;;;;;;;;;;5037848;28;20309;-66
2022/10/10 02:34:21;;;;;;;8.93;6.23;;;;;;;;;;5047283;28;20307;-66
2022/10/10 02:36:50;;;;;;;10.43;6.63;;;;;;;;;;5042347;28;20191;-66
2022/10/10 02:39:17;;;;;;;10.83;6.60;;;;;;;;;;5038267;28;20181;-66
2022/10/10 02:41:45;;;;;;;11.50;6.87;;;;;;;;;;5029461;28;20209;-66
2022/10/10 02:44:12;;;;;;;15.77;7.77;;;;;;;;;;5044401;28;20181;-66
2022/10/10 02:46:37;;;;;;;12.13;6.83;;;;;;;;;;5042825;28;20193;-66
2022/10/10 02:49:06;;;;;;;13.80;6.87;;;;;;;;;;5038927;28;20196;-66
2022/10/10 02:51:32;;;;;;;9.40;6.33;;;;;;;;;;5028699;28;20186;-66
2022/10/10 02:53:57;;;;;;;13.80;6.83;;;;;;;;;;5038188;28;20185;-66
2022/10/10 02:56:23;;;;;;;11.70;6.77;;;;;;;;;;5047369;28;20710;-66
2022/10/10 02:58:48;;;;;;;8.20;5.80;;;;;;;;;;5032334;28;20452;-66
2022/10/10 03:01:13;;;;;;;8.40;6.70;;;;;;;;;;5046783;28;20197;-66
2022/10/10 03:03:39;;;;;;;11.53;6.97;;;;;;;;;;5036743;28;20201;-66
2022/10/10 03:06:04;;;;;;;10.77;7.13;;;;;;;;;;5040164;28;20181;-66
2022/10/10 03:08:29;;;;;;;11.00;6.37;;;;;;;;;;5032451;28;20186;-66
2022/10/10 03:11:00;;;;;;;8.90;6.63;;;;;;;;;;5044107;28;20192;-66
2022/10/10 03:13:25;;;;;;;11.50;7.07;;;;;;;;;;5029919;28;20189;-66
2022/10/10 03:15:51;;;;;;;14.13;7.43;;;;;;;;;;5038491;28;20193;-66
2022/10/10 03:18:16;;;;;;;9.40;6.60;;;;;;;;;;5028457;28;20557;-66
2022/10/10 03:20:44;;;;;;;10.17;6.33;;;;;;;;;;5036635;28;20186;-66
2022/10/10 03:23:10;;;;;;;10.73;6.50;;;;;;;;;;5034622;28;20210;-66
2022/10/10 03:25:39;;;;;;;15.60;7.63;;;;;;;;;;5036704;28;20177;-66
2022/10/10 03:28:04;;;;;;;11.83;7.13;;;;;;;;;;5037479;28;20184;-66
2022/10/10 03:30:30;;;;;;;12.07;7.00;;;;;;;;;;5030132;28;20615;-66
2022/10/10 03:32:55;;;;;;;11.63;6.87;;;;;;;;;;5030734;28;20201;-66
2022/10/10 03:35:20;;;;;;;9.07;6.20;;;;;;;;;;5031020;28;20206;-66
2022/10/10 03:37:46;;;;;;;12.50;6.80;;;;;;;;;;5035624;28;20179;-66
2022/10/10 03:40:11;;;;;;;14.67;7.10;;;;;;;;;;5030392;28;20221;-66
2022/10/10 03:42:36;;;;;;;9.33;6.80;;;;;;;;;;5030058;28;20475;-66
2022/10/10 03:45:02;;;;;;;13.33;7.00;;;;;;;;;;5042233;28;20189;-66
2022/10/10 03:47:27;;;;;;;9.17;6.03;;;;;;;;;;5027989;28;20186;-66
2022/10/10 03:49:53;;;;;;;11.57;6.77;;;;;;;;;;5032974;28;20218;-66
2022/10/10 03:52:18;;;;;;;16.03;6.67;;;;;;;;;;5029914;28;20190;-67
2022/10/10 03:54:43;;;;;;;12.77;7.17;;;;;;;;;;5030108;28;20182;-66
2022/10/10 03:57:09;;;;;;;11.83;7.10;;;;;;;;;;5040953;28;20182;-66
2022/10/10 03:59:34;;;;;;;13.17;7.27;;;;;;;;;;5036949;28;20189;-66
2022/10/10 04:01:59;;;;;;;9.63;6.90;;;;;;;;;;5038494;28;20214;-66
2022/10/10 04:04:25;;;;;;;10.63;6.57;;;;;;;;;;5038451;28;20186;-66
2022/10/10 04:06:50;;;;;;;11.47;6.97;;;;;;;;;;5034668;28;20186;-66
2022/10/10 04:09:15;;;;;;;12.83;7.13;;;;;;;;;;5033071;28;20242;-66
2022/10/10 04:11:42;;;;;;;12.77;7.00;;;;;;;;;;5033292;28;20311;-66
2022/10/10 04:14:07;;;;;;;10.17;6.67;;;;;;;;;;5034709;28;20646;-66
2022/10/10 04:16:32;;;;;;;11.03;6.90;;;;;;;;;;5034077;28;20193;-66
2022/10/10 04:18:58;;;;;;;12.13;7.03;;;;;;;;;;5044235;28;20215;-66
2022/10/10 04:21:23;;;;;;;12.13;6.93;;;;;;;;;;5045249;28;20209;-66
2022/10/10 04:23:48;;;;;;;8.40;6.40;;;;;;;;;;5036844;28;20213;-66
2022/10/10 04:26:14;;;;;;;10.00;6.53;;;;;;;;;;5039515;28;20209;-66
2022/10/10 04:28:39;;;;;;;18.50;5.93;;;;;;;;;;5033879;28;20218;-66
2022/10/10 04:31:05;;;;;;;14.63;6.43;;;;;;;;;;5030823;28;20230;-66
2022/10/10 04:33:30;;;;;;;13.30;6.30;;;;;;;;;;5040275;28;20182;-66
2022/10/10 04:35:55;;;;;;;12.53;6.73;;;;;;;;;;5035248;28;20196;-66
2022/10/10 04:38:21;;;;;;;12.50;6.23;;;;;;;;;;5033412;28;20186;-66
2022/10/10 04:40:49;;;;;;;12.27;6.43;;;;;;;;;;5043156;28;20352;-66
2022/10/10 04:43:14;;;;;;;12.50;6.67;;;;;;;;;;5047804;28;20231;-66
2022/10/10 04:45:40;;;;;;;10.60;6.10;;;;;;;;;;5047500;28;20213;-66
2022/10/10 04:48:05;;;;;;;12.87;7.03;;;;;;;;;;5042420;28;20178;-66
2022/10/10 04:50:31;;;;;;;11.80;6.33;;;;;;;;;;5041345;28;20186;-66
2022/10/10 04:52:56;;;;;;;11.53;5.83;;;;;;;;;;5035307;28;20190;-66
2022/10/10 04:55:22;;;;;;;13.57;6.60;;;;;;;;;;5043800;28;20175;-66
2022/10/10 04:57:47;;;;;;;11.60;6.63;;;;;;;;;;5042036;28;20213;-66
2022/10/10 05:00:13;;;;;;;9.87;6.10;;;;;;;;;;5046553;28;20182;-66
2022/10/10 05:02:38;;;;;;;8.57;6.03;;;;;;;;;;5034466;28;20240;-66
2022/10/10 05:05:04;;;;;;;8.17;6.23;;;;;;;;;;5032364;28;20227;-66
2022/10/10 05:07:29;;;;;;;13.00;6.80;;;;;;;;;;5036597;28;20709;-66
2022/10/10 05:09:54;;;;;;;10.97;6.20;;;;;;;;;;5031541;28;20186;-66
2022/10/10 05:12:20;;;;;;;12.53;6.50;;;;;;;;;;5036111;28;20194;-66
2022/10/10 05:14:45;;;;;;;8.80;6.20;;;;;;;;;;5035484;28;20186;-66
2022/10/10 05:17:10;;;;;;;12.30;5.87;;;;;;;;;;5031325;28;20273;-66
2022/10/10 05:19:36;;;;;;;14.13;6.10;;;;;;;;;;5032437;28;20217;-66
2022/10/10 05:22:01;;;;;;;11.80;6.20;;;;;;;;;;5035919;28;20663;-67
2022/10/10 05:24:26;;;;;;;9.03;5.73;;;;;;;;;;5043952;28;20240;-66
2022/10/10 05:26:52;;;;;;;11.53;6.20;;;;;;;;;;5041810;28;20186;-66
2022/10/10 05:29:17;;;;;;;10.00;6.00;;;;;;;;;;5033399;28;20212;-66
2022/10/10 05:31:43;;;;;;;13.43;6.20;;;;;;;;;;5038484;28;20221;-66
2022/10/10 05:34:13;;;;;;;13.03;6.80;;;;;;;;;;5036307;28;20243;-66
2022/10/10 05:36:39;;;;;;;12.13;6.13;;;;;;;;;;5048301;28;20188;-66
2022/10/10 05:39:05;;;;;;;11.77;6.47;;;;;;;;;;5032346;28;20182;-66
2022/10/10 05:41:30;;;;;;;11.80;6.33;;;;;;;;;;5039597;28;20205;-67
2022/10/10 05:43:56;;;;;;;14.80;6.70;;;;;;;;;;5035454;28;22172;-66
2022/10/10 05:46:23;;;;;;;12.10;6.33;;;;;;;;;;5042369;28;20347;-66
2022/10/10 05:48:49;;;;;;;11.37;5.70;;;;;;;;;;5042061;28;20264;-66
2022/10/10 05:51:14;;;;;;;12.63;6.80;;;;;;;;;;5034404;28;20264;-67
2022/10/10 05:53:40;;;;;;;9.43;6.13;;;;;;;;;;5036623;28;20178;-66
2022/10/10 05:56:05;;;;;;;12.00;6.50;;;;;;;;;;5030388;28;20424;-66
2022/10/10 05:58:30;;;;;;;10.13;6.40;;;;;;;;;;5030009;28;20182;-68
2022/10/10 06:01:02;;;;;;;11.57;6.10;;;;;;;;;;5039483;28;20320;-66
2022/10/10 06:03:27;;;;;;;12.00;6.57;;;;;;;;;;5037206;28;20204;-66
2022/10/10 06:05:52;;;;;;;12.13;6.50;;;;;;;;;;5034086;28;20185;-66
2022/10/10 06:08:18;;;;;;;12.10;6.50;;;;;;;;;;5038356;28;20232;-66
2022/10/10 06:10:44;;;;;;;12.83;6.67;;;;;;;;;;5043273;28;20177;-66
2022/10/10 06:13:12;;;;;;;10.27;6.57;;;;;;;;;;5041986;28;20208;-66
2022/10/10 06:15:37;;;;;;;12.67;6.73;;;;;;;;;;5030990;28;20186;-66
2022/10/10 06:18:03;;;;;;;15.13;7.50;;;;;;;;;;5030941;28;20193;-65
2022/10/10 06:20:28;;;;;;;13.40;7.33;;;;;;;;;;5041708;28;20656;-66
2022/10/10 06:22:54;;;;;;;12.83;7.83;;;;;;;;;;4332889;28;10000807;-67
2022/10/10 06:25:19;;;;;;;13.27;7.70;;;;;;;;;;5043872;28;20182;-66
2022/10/10 06:27:44;;;;;;;12.05;7.22;;;;;;;;;;5032628;28;20297;-66
2022/10/10 06:30:10;;;;;;;15.37;7.47;;;;;;;;;;5028707;28;20685;-66
2022/10/10 06:32:35;;;;;;;14.30;7.72;;;;;;;;;;5029574;28;20572;-66
2022/10/10 06:35:01;;;;;;;12.27;7.40;;;;;;;;;;5028612;28;20217;-66
2022/10/10 06:37:26;;;;;;;12.98;7.00;;;;;;;;;;5029161;28;20174;-66
2022/10/10 06:39:52;;;;;;;10.63;7.17;;;;;;;;;;5040425;28;20217;-66
2022/10/10 06:42:17;;;;;;;12.37;7.57;;;;;;;;;;5038014;28;20227;-66
2022/10/10 06:44:42;;;;;;;11.43;7.60;;;;;;;;;;5040795;28;20272;-66
2022/10/10 06:47:10;;;;;;;13.37;6.53;;;;;;;;;;5041284;28;20255;-67
2022/10/10 06:49:35;;;;;;;13.23;6.37;;;;;;;;;;5037009;28;20212;-67
2022/10/10 06:52:01;;;;;;;11.47;6.10;;;;;;;;;;5034603;28;20210;-66
2022/10/10 06:54:26;;;;;;;15.93;6.57;;;;;;;;;;5028147;28;20265;-66
2022/10/10 06:56:51;;;;;;;12.80;7.17;;;;;;;;;;5031483;28;20199;-66
2022/10/10 06:59:17;;;;;;;13.47;6.93;;;;;;;;;;5027908;28;20201;-66
2022/10/10 07:01:42;;;;;;;13.27;6.40;;;;;;;;;;5030168;28;20210;-66
2022/10/10 07:04:09;;;;;;;11.90;6.83;;;;;;;;;;5030524;28;20185;-66
2022/10/10 07:06:35;;;;;;;15.80;7.07;;;;;;;;;;5039129;28;20243;-66
2022/10/10 07:09:00;;;;;;;12.40;7.33;;;;;;;;;;5031675;28;20185;-66
2022/10/10 07:11:26;;;;;;;11.50;6.90;;;;;;;;;;5028433;28;20552;-66
2022/10/10 07:13:52;;;;;;;14.70;6.93;;;;;;;;;;5030083;28;20273;-66
2022/10/10 07:16:18;;;;;;;14.03;7.10;;;;;;;;;;5032171;28;20190;-66
2022/10/10 07:18:43;;;;;;;13.07;6.90;;;;;;;;;;5034851;28;20716;-66
2022/10/10 07:21:09;;;;;;;10.70;6.33;;;;;;;;;;5047942;28;20184;-66
2022/10/10 07:23:35;;;;;;;17.43;6.50;;;;;;;;;;5038146;28;20260;-66
2022/10/10 07:26:04;;;;;;;7.90;5.85;;;;;;;;;;5037023;28;20471;-66
2022/10/10 07:28:29;;;;;;;12.13;6.30;;;;;;;;;;5032646;28;20553;-66
2022/10/10 07:31:07;;;;;;;13.63;6.65;;;;;;;;;;5030579;28;20233;-67
2022/10/10 07:33:35;;;;;;;8.65;5.45;;;;;;;;;;5027528;28;20189;-66
2022/10/10 07:36:01;;;;;;;8.25;5.93;;;;;;;;;;5032137;28;20190;-67
2022/10/10 07:38:26;;;;;;;8.10;6.05;;;;;;;;;;5039349;28;20539;-66
2022/10/10 07:40:52;;;;;;;14.65;6.35;;;;;;;;;;5032397;28;21047;-66
2022/10/10 07:43:17;;;;;;;10.65;6.43;;;;;;;;;;5037019;28;20244;-66
2022/10/10 07:45:43;;;;;;;13.15;6.50;;;;;;;;;;5032853;28;20247;-67
2022/10/10 07:48:08;;;;;;;12.88;6.63;;;;;;;;;;5033781;28;20189;-67
2022/10/10 07:50:33;;;;;;;10.68;6.07;;;;;;;;;;5034019;28;20174;-67
2022/10/10 07:52:59;;;;;;;11.90;5.60;;;;;;;;;;5032667;28;20213;-67
2022/10/10 07:55:24;;;;;;;8.55;5.63;;;;;;;;;;5034173;28;20209;-67
2022/10/10 07:57:50;;;;;;;9.55;6.45;;;;;;;;;;5037399;28;20178;-66
2022/10/10 08:00:15;;;;;;;9.85;5.70;;;;;;;;;;5042260;28;20221;-66
2022/10/10 08:02:41;;;;;;;17.83;6.43;;;;;;;;;;5036086;28;20236;-67
2022/10/10 08:05:07;;;;;;;11.23;6.50;;;;;;;;;;5032388;28;20200;-66
2022/10/10 08:07:33;;;;;;;8.88;6.05;;;;;;;;;;5031685;28;20212;-67
2022/10/10 08:09:58;;;;;;;14.82;6.70;;;;;;;;;;5030795;28;20174;-67
2022/10/10 08:12:24;;;;;;;13.82;6.00;;;;;;;;;;5033823;28;20192;-67
2022/10/10 08:14:49;;;;;;;9.40;6.10;;;;;;;;;;5035637;28;20178;-67
2022/10/10 08:17:15;;;;;;;15.13;6.05;;;;;;;;;;5033509;28;20201;-67
2022/10/10 08:19:40;;;;;;;9.77;5.82;;;;;;;;;;5033592;28;20170;-67
2022/10/10 08:22:06;;;;;;;11.85;6.35;;;;;;;;;;5032093;28;20202;-67
2022/10/10 08:24:31;;;;;;;9.70;5.68;;;;;;;;;;5032116;28;20711;-67
2022/10/10 08:26:57;;;;;;;11.02;5.82;;;;;;;;;;5034786;28;20623;-67
2022/10/10 08:29:23;;;;;;;14.05;5.97;;;;;;;;;;5031573;28;20268;-67
2022/10/10 08:31:48;;;;;;;10.65;6.45;;;;;;;;;;5030976;28;20234;-67
2022/10/10 08:34:13;;;;;;;10.68;6.30;;;;;;;;;;5032238;28;20749;-67
2022/10/10 08:36:39;;;;;;;9.18;6.07;;;;;;;;;;5029835;28;20205;-67
2022/10/10 08:39:04;;;;;;;13.70;7.38;;;;;;;;;;5032029;28;20258;-67
2022/10/10 08:41:38;;;;;;;8.70;5.80;;;;;;;;;;5031132;28;20301;-67
2022/10/10 08:44:09;;;;;;;10.38;6.20;;;;;;;;;;5032901;28;20236;-67
2022/10/10 08:46:49;;;;;;;12.77;5.80;;;;;;;;;;5032878;28;20189;-67
2022/10/10 08:49:52;;;;;;;10.95;5.88;;;;;;;;;;5033823;28;20185;-67
2022/10/10 08:52:38;;;;;;;8.00;5.32;;;;;;;;;;5033200;28;20178;-68
2022/10/10 08:55:13;;;;;;;11.40;5.85;;;;;;;;;;5033541;28;20586;-67
2022/10/10 08:57:58;;;;;;;11.50;5.68;;;;;;;;;;5029800;28;20193;-68
2022/10/10 09:00:31;;;;;;;11.30;5.10;;;;;;;;;;5033681;28;20239;-67
2022/10/10 09:02:59;;;;;;;8.63;5.65;;;;;;;;;;5035808;28;20191;-67
2022/10/10 09:05:35;;;;;;;11.13;5.47;;;;;;;;;;5030285;28;20271;-67
2022/10/10 09:08:11;;;;;;;11.30;5.93;;;;;;;;;;5032344;28;20687;-67
2022/10/10 09:11:00;;;;;;;10.82;6.10;;;;;;;;;;5037137;28;20260;-67
2022/10/10 09:13:35;;;;;;;8.27;5.15;;;;;;;;;;5045867;28;20197;-67
2022/10/10 09:16:05;;;;;;;11.77;5.53;;;;;;;;;;5032804;28;20196;-67
2022/10/10 09:18:52;;;;;;;8.52;5.35;;;;;;;;;;5045839;28;20174;-67
2022/10/10 09:21:30;;;;;;;8.30;5.50;;;;;;;;;;5037196;28;20182;-67
2022/10/10 09:24:07;;;;;;;7.53;5.07;;;;;;;;;;5037686;28;20600;-68
2022/10/10 09:26:48;;;;;;;14.57;5.03;;;;;;;;;;5045003;28;20644;-68
2022/10/10 09:29:26;;;;;;;9.60;5.18;;;;;;;;;;5034659;28;20288;-67
2022/10/10 09:32:03;;;;;;;10.65;5.75;;;;;;;;;;5037275;28;20225;-67
2022/10/10 09:35:10;;;;;;;9.73;5.13;;;;;;;;;;5031559;28;20695;-68
2022/10/10 09:37:37;;;;;;;12.40;5.68;;;;;;;;;;5036452;28;20270;-67
2022/10/10 09:40:03;;;;;;;10.38;5.47;;;;;;;;;;5036704;28;20185;-67
2022/10/10 09:42:38;;;;;;;7.78;6.03;;;;;;;;;;5037739;28;20209;-67
2022/10/10 09:45:18;;;;;;;8.75;5.07;;;;;;;;;;5029191;28;20197;-67
2022/10/10 09:47:44;;;;;;;9.02;5.78;;;;;;;;;;5033663;28;20185;-67
2022/10/10 09:50:14;;;;;;;16.45;6.25;;;;;;;;;;5029968;28;20681;-67
2022/10/10 09:52:41;;;;;;;12.63;5.45;;;;;;;;;;5030752;28;20185;-67
2022/10/10 09:55:29;;;;;;;10.02;5.07;;;;;;;;;;5032010;28;20184;-67
2022/10/10 09:58:00;;;;;;;11.30;5.45;;;;;;;;;;5032697;28;20193;-67
2022/10/10 10:00:31;;;;;;;9.45;5.43;;;;;;;;;;5029805;28;20557;-69
2022/10/10 10:03:03;;;;;;;10.07;5.75;;;;;;;;;;5034566;28;20641;-68
2022/10/10 10:05:28;;;;;;;10.15;5.35;;;;;;;;;;5031887;28;20202;-67
2022/10/10 10:07:53;;;;;;;12.57;5.05;;;;;;;;;;5028018;28;20271;-67
2022/10/10 10:10:25;;;;;;;8.88;5.05;;;;;;;;;;5038387;28;20181;-67
2022/10/10 10:12:52;;;;;;;8.77;5.40;;;;;;;;;;5033801;28;20182;-67
2022/10/10 10:15:20;;;;;;;9.57;5.30;;;;;;;;;;5028331;28;20185;-67
2022/10/10 10:18:06;;;;;;;7.95;5.18;;;;;;;;;;5039777;28;20231;-68
2022/10/10 10:20:34;;;;;;;9.95;5.75;;;;;;;;;;5035976;28;20177;-67
2022/10/10 10:23:00;;;;;;;10.70;5.55;;;;;;;;;;5040211;28;20235;-67
2022/10/10 10:25:30;;;;;;;11.10;5.82;;;;;;;;;;5046250;28;20173;-67
2022/10/10 10:28:11;;;;;;;12.02;5.57;;;;;;;;;;5031829;28;20177;-67
2022/10/10 10:30:38;;;;;;;9.57;6.15;;;;;;;;;;5043508;28;20666;-67
2022/10/10 10:33:26;;;;;;;7.18;5.15;;;;;;;;;;5044463;28;20288;-67
2022/10/10 10:36:06;;;;;;;8.57;5.55;;;;;;;;;;5047013;28;20264;-68
2022/10/10 10:38:37;;;;;;;7.93;5.05;;;;;;;;;;5028902;28;20256;-67
2022/10/10 10:41:32;;;;;;;8.57;5.10;;;;;;;;;;5041807;28;20264;-67
2022/10/10 10:44:36;;;;;;;7.78;5.38;;;;;;;;;;5037334;28;20599;-67
2022/10/10 10:47:28;;;;;;;11.43;5.82;;;;;;;;;;5025295;28;20622;-69
2022/10/10 10:50:23;;;;;;;10.25;5.20;;;;;;;;;;5044093;28;20204;-67
2022/10/10 10:53:06;;;;;;;9.88;5.20;;;;;;;;;;5042562;28;20584;-67
2022/10/10 10:55:41;;;;;;;7.90;5.22;;;;;;;;;;5028574;28;20178;-67
2022/10/10 10:58:06;;;;;;;10.27;5.25;;;;;;;;;;5042364;28;20647;-71
2022/10/10 11:00:44;;;;;;;8.32;5.63;;;;;;;;;;5031159;28;20184;-67
2022/10/10 11:03:29;;;;;;;13.23;5.50;;;;;;;;;;5039798;28;20206;-67
2022/10/10 11:05:57;;;;;;;8.75;5.03;;;;;;;;;;5035911;28;20190;-67
2022/10/10 11:08:50;;;;;;;9.00;4.90;;;;;;;;;;5033000;28;20549;-67
2022/10/10 11:11:48;;;;;;;11.05;5.93;;;;;;;;;;5041110;28;20184;-68
2022/10/10 11:14:25;;;;;;;11.27;5.30;;;;;;;;;;5020760;28;20202;-67
2022/10/10 11:16:59;;;;;;;8.68;5.25;;;;;;;;;;5032118;28;20268;-67
2022/10/10 11:19:36;;;;;;;11.70;4.95;;;;;;;;;;5026585;28;20180;-66
2022/10/10 11:22:10;;;;;;;12.32;5.22;;;;;;;;;;5039850;28;20256;-67
2022/10/10 11:24:41;;;;;;;7.97;5.18;;;;;;;;;;5036524;28;20668;-67
2022/10/10 11:27:23;;;;;;;11.07;5.47;;;;;;;;;;5046590;28;20609;-68
2022/10/10 11:30:07;;;;;;;10.85;5.35;;;;;;;;;;5031044;28;20570;-67
2022/10/10 11:32:36;;;;;;;12.68;5.82;;;;;;;;;;5031944;28;20296;-66
2022/10/10 11:35:16;;;;;;;11.32;5.32;;;;;;;;;;5034356;28;20653;-66
2022/10/10 11:37:49;;;;;;;10.55;5.35;;;;;;;;;;5031794;28;20188;-69
2022/10/10 11:40:33;;;;;;;7.68;5.18;;;;;;;;;;5030209;28;20264;-66
2022/10/10 11:43:04;;;;;;;12.75;5.65;;;;;;;;;;5033104;28;20761;-67
2022/10/10 11:45:45;;;;;;;8.30;5.80;;;;;;;;;;5037773;28;20273;-67
2022/10/10 11:48:26;;;;;;;9.05;5.63;;;;;;;;;;5027736;28;20335;-67
2022/10/10 11:51:21;;;;;;;10.48;4.93;;;;;;;;;;5031441;28;20174;-67
2022/10/10 11:53:49;;;;;;;10.43;5.38;;;;;;;;;;5028447;28;20247;-66
2022/10/10 11:56:40;;;;;;;11.57;5.22;;;;;;;;;;5031844;28;20708;-67
2022/10/10 11:59:26;;;;;;;9.27;5.40;;;;;;;;;;5034635;28;20297;-67
2022/10/10 12:01:57;;;;;;;12.00;5.22;;;;;;;;;;5039032;28;20657;-67
2022/10/10 12:04:22;;;;;;;12.68;4.95;;;;;;;;;;5029875;28;20240;-69
2022/10/10 12:07:12;;;;;;;8.30;5.50;;;;;;;;;;5036538;28;20205;-67
2022/10/10 12:09:42;;;;;;;11.23;5.75;;;;;;;;;;5036673;28;20206;-67
2022/10/10 12:12:21;;;;;;;7.47;5.03;;;;;;;;;;5032243;28;20174;-67
2022/10/10 12:14:52;;;;;;;12.32;5.60;;;;;;;;;;5033744;28;20178;-67
2022/10/10 12:17:31;;;;;;;9.60;5.28;;;;;;;;;;5035775;28;20204;-67
2022/10/10 12:20:10;;;;;;;7.90;4.68;;;;;;;;;;5036045;28;20821;-68
2022/10/10 12:22:36;;;;;;;8.23;4.40;;;;;;;;;;5040916;28;20189;-67
2022/10/10 12:25:07;;;;;;;7.68;4.47;;;;;;;;;;5041824;28;20189;-67
2022/10/10 12:28:04;;;;;;;9.90;4.72;;;;;;;;;;5034419;28;20197;-66
2022/10/10 12:30:29;;;;;;;7.38;4.15;;;;;;;;;;5035783;28;20222;-67
2022/10/10 12:32:56;;;;;;;11.18;4.50;;;;;;;;;;5037588;28;20619;-67
2022/10/10 12:35:34;;;;;;;11.80;5.18;;;;;;;;;;5034666;28;20257;-67
2022/10/10 12:38:24;;;;;;;8.90;4.50;;;;;;;;;;5033991;28;20185;-67
2022/10/10 12:41:07;;;;;;;6.30;3.80;;;;;;;;;;5047424;28;20539;-67
2022/10/10 12:43:48;;;;;;;9.75;4.55;;;;;;;;;;5043528;28;20208;-67
2022/10/10 12:46:28;;;;;;;10.20;4.63;;;;;;;;;;5048040;28;20315;-67
2022/10/10 12:48:58;;;;;;;10.05;4.30;;;;;;;;;;5030388;28;20189;-67
2022/10/10 12:51:24;;;;;;;8.13;4.22;;;;;;;;;;5032635;28;20193;-68
2022/10/10 12:53:53;;;;;;;10.50;4.40;;;;;;;;;;5036465;28;20188;-67
2022/10/10 12:56:35;;;;;;;7.35;4.30;;;;;;;;;;5041767;28;20544;-67
2022/10/10 12:59:01;;;;;;;10.80;4.60;;;;;;;;;;5036044;28;20193;-68
2022/10/10 13:01:31;;;;;;;12.32;4.60;;;;;;;;;;5034582;28;20217;-67
2022/10/10 13:03:57;;;;;;;11.70;4.75;;;;;;;;;;5033380;28;20182;-67
2022/10/10 13:06:29;;;;;;;9.85;4.95;;;;;;;;;;5032819;28;20719;-67
2022/10/10 13:08:55;;;;;;;10.20;4.82;;;;;;;;;;5039706;28;20213;-68
2022/10/10 13:11:20;;;;;;;11.30;5.45;;;;;;;;;;5031216;28;20221;-67
2022/10/10 13:13:51;;;;;;;8.00;4.53;;;;;;;;;;5042569;28;20213;-67
2022/10/10 13:16:19;;;;;;;7.93;4.65;;;;;;;;;;5038817;28;20596;-68
2022/10/10 13:18:54;;;;;;;12.90;5.05;;;;;;;;;;5034574;28;20178;-67
2022/10/10 13:21:31;;;;;;;9.40;4.90;;;;;;;;;;5030512;28;20201;-67
2022/10/10 13:24:05;;;;;;;11.43;4.18;;;;;;;;;;5036676;28;20585;-67
2022/10/10 13:26:37;;;;;;;13.18;4.30;;;;;;;;;;5034909;28;20587;-67
2022/10/10 13:29:34;;;;;;;12.00;4.80;;;;;;;;;;5041412;28;20181;-67
2022/10/10 13:32:12;;;;;;;8.77;4.60;;;;;;;;;;5031076;28;20241;-67
2022/10/10 13:34:42;;;;;;;11.63;5.18;;;;;;;;;;5029484;28;20265;-67
2022/10/10 13:37:13;;;;;;;13.10;4.80;;;;;;;;;;5033908;28;20216;-67
2022/10/10 13:39:40;;;;;;;10.50;5.78;;;;;;;;;;5030334;28;20257;-67
2022/10/10 13:42:21;;;;;;;15.05;6.18;;;;;;;;;;5036254;28;20507;-68
2022/10/10 13:44:49;;;;;;;9.68;5.78;;;;;;;;;;5035266;28;20178;-68
2022/10/10 13:47:48;;;;;;;15.10;6.43;;;;;;;;;;5029169;28;20236;-69
2022/10/10 13:50:34;;;;;;;15.48;6.40;;;;;;;;;;5026844;28;20186;-68
2022/10/10 13:53:28;;;;;;;11.88;6.20;;;;;;;;;;5037003;28;20207;-68
2022/10/10 13:56:09;;;;;;;14.57;6.63;;;;;;;;;;5031719;28;20189;-68
2022/10/10 13:59:10;;;;;;;14.70;6.65;;;;;;;;;;5031192;28;20223;-68
2022/10/10 14:01:40;;;;;;;15.90;7.63;;;;;;;;;;5035062;28;20207;-69
2022/10/10 14:04:18;;;;;;;12.15;7.72;;;;;;;;;;5035038;28;20212;-69
2022/10/10 14:07:05;;;;;;;17.52;7.95;;;;;;;;;;5036012;28;20686;-69
2022/10/10 14:09:39;;;;;;;14.13;7.97;;;;;;;;;;5033025;28;20182;-67
2022/10/10 14:12:13;;;;;;;14.77;8.00;;;;;;;;;;5032145;28;20223;-68
2022/10/10 14:14:46;;;;;;;18.90;7.75;;;;;;;;;;5047100;28;20213;-68
2022/10/10 14:17:13;;;;;;;21.73;8.15;;;;;;;;;;5032519;28;20178;-68
2022/10/10 14:19:40;;;;;;;14.90;8.52;;;;;;;;;;5042270;28;20185;-67
2022/10/10 14:22:05;;;;;;;21.27;8.70;;;;;;;;;;5044127;28;20202;-68
2022/10/10 14:24:30;;;;;;;15.90;9.15;;;;;;;;;;5037466;28;20178;-67
2022/10/10 14:26:56;;;;;;;12.80;9.25;;;;;;;;;;5037203;28;20178;-68
2022/10/10 14:29:22;;;;;;;18.05;8.93;;;;;;;;;;5031152;28;20608;-68
2022/10/10 14:31:47;;;;;;;14.15;9.02;;;;;;;;;;5036299;28;20233;-68
2022/10/10 14:34:13;;;;;;;15.90;9.57;;;;;;;;;;5045638;28;20622;-68
2022/10/10 14:36:44;;;;;;;20.75;9.05;;;;;;;;;;5050080;28;20586;-69
2022/10/10 14:39:13;;;;;;;14.60;9.68;;;;;;;;;;5042018;28;20271;-69
2022/10/10 14:41:38;;;;;;;15.45;9.52;;;;;;;;;;5035996;28;20268;-68
2022/10/10 14:44:03;;;;;;;21.88;9.95;;;;;;;;;;5034101;28;20594;-69
2022/10/10 14:46:29;;;;;;;16.42;9.20;;;;;;;;;;5032150;28;20625;-68
2022/10/10 14:48:54;;;;;;;18.35;9.77;;;;;;;;;;5028070;28;20186;-69
2022/10/10 14:51:19;;;;;;;17.23;9.25;;;;;;;;;;5029919;28;20509;-70
2022/10/10 14:53:45;;;;;;;17.50;9.63;;;;;;;;;;5033119;28;20186;-68
2022/10/10 14:56:11;;;;;;;17.33;10.93;;;;;;;;;;5029967;28;20185;-69